sensor_id;sensor_type;location;lat;lon;timestamp;pressure;altitude;pressure_sealevel;temperature;humidity
48968;BME280;46511;53.148;8.204;2023-05-23T00:01:36;101452.91;;;16.72;100.00
48968;BME280;46511;53.148;8.204;2023-05-23T00:04:07;101446.47;;;16.23;100.00
48968;BME280;46511;53.148;8.204;2023-05-23T00:06:40;101454.31;;;16.77;100.00
48968;BME280;46511;53.148;8.204;2023-05-23T00:09:16;101449.25;;;16.35;100.00
48968;BME280;46511;53.148;8.204;2023-05-23T00:11:48;101444.22;;;16.68;100.00
48968;BME280;46511;53.148;8.204;2023-05-23T00:14:19;101443.47;;;16.79;100.00
48968;BME280;46511;53.148;8.204;2023-05-23T00:16:50;101438.28;;;16.89;100.00
48968;BME280;46511;53.148;8.204;2023-05-23T00:19:22;101444.50;;;16.76;100.00
48968;BME280;46511;53.148;8.204;2023-05-23T00:21:48;101443.81;;;16.49;100.00
48968;BME280;46511;53.148;8.204;2023-05-23T00:24:19;101450.19;;;16.84;100.00
48968;BME280;46511;53.148;8.204;2023-05-23T00:26:51;101440.66;;;16.80;100.00
48968;BME280;46511;53.148;8.204;2023-05-23T00:29:23;101441.94;;;16.62;100.00
48968;BME280;46511;53.148;8.204;2023-05-23T00:31:54;101437.13;;;16.54;100.00
48968;BME280;46511;53.148;8.204;2023-05-23T00:34:25;101435.19;;;16.56;100.00
48968;BME280;46511;53.148;8.204;2023-05-23T00:36:52;101430.16;;;16.26;100.00
48968;BME280;46511;53.148;8.204;2023-05-23T00:39:19;101438.09;;;16.53;100.00
48968;BME280;46511;53.148;8.204;2023-05-23T00:41:50;101440.66;;;16.55;100.00
48968;BME280;46511;53.148;8.204;2023-05-23T00:44:17;101443.84;;;16.85;100.00
48968;BME280;46511;53.148;8.204;2023-05-23T00:46:51;101440.00;;;16.90;100.00
48968;BME280;46511;53.148;8.204;2023-05-23T00:49:19;101436.47;;;16.76;100.00
48968;BME280;46511;53.148;8.204;2023-05-23T00:51:51;101429.69;;;16.83;100.00
48968;BME280;46511;53.148;8.204;2023-05-23T00:54:19;101431.41;;;16.84;100.00
48968;BME280;46511;53.148;8.204;2023-05-23T00:56:50;101431.19;;;16.88;100.00
48968;BME280;46511;53.148;8.204;2023-05-23T00:59:21;101433.22;;;16.84;100.00
48968;BME280;46511;53.148;8.204;2023-05-23T01:01:56;101433.59;;;16.54;100.00
48968;BME280;46511;53.148;8.204;2023-05-23T01:04:28;101432.69;;;16.66;100.00
48968;BME280;46511;53.148;8.204;2023-05-23T01:06:59;101426.06;;;16.46;100.00
48968;BME280;46511;53.148;8.204;2023-05-23T01:09:30;101429.09;;;16.42;100.00
48968;BME280;46511;53.148;8.204;2023-05-23T01:15:18;101414.19;;;16.25;100.00
48968;BME280;46511;53.148;8.204;2023-05-23T01:17:53;101415.22;;;16.61;100.00
48968;BME280;46511;53.148;8.204;2023-05-23T01:20:40;101418.78;;;16.10;100.00
48968;BME280;46511;53.148;8.204;2023-05-23T01:23:28;101405.47;;;16.47;100.00
48968;BME280;46511;53.148;8.204;2023-05-23T01:26:11;101409.34;;;16.43;100.00
48968;BME280;46511;53.148;8.204;2023-05-23T01:28:49;101409.69;;;16.51;100.00
48968;BME280;46511;53.148;8.204;2023-05-23T01:31:24;101424.47;;;16.18;100.00
48968;BME280;46511;53.148;8.204;2023-05-23T01:33:59;101426.41;;;16.16;100.00
48968;BME280;46511;53.148;8.204;2023-05-23T01:36:37;101420.50;;;15.98;100.00
48968;BME280;46511;53.148;8.204;2023-05-23T01:39:12;101427.81;;;16.09;100.00
48968;BME280;46511;53.148;8.204;2023-05-23T01:41:43;101425.69;;;16.02;100.00
48968;BME280;46511;53.148;8.204;2023-05-23T01:44:15;101419.66;;;16.49;100.00
48968;BME280;46511;53.148;8.204;2023-05-23T01:46:47;101428.69;;;16.22;100.00
48968;BME280;46511;53.148;8.204;2023-05-23T01:49:18;101426.09;;;16.08;100.00
48968;BME280;46511;53.148;8.204;2023-05-23T01:51:52;101435.84;;;16.35;100.00
48968;BME280;46511;53.148;8.204;2023-05-23T01:54:24;101438.44;;;16.23;100.00
48968;BME280;46511;53.148;8.204;2023-05-23T01:56:56;101431.25;;;16.49;100.00
48968;BME280;46511;53.148;8.204;2023-05-23T01:59:28;101434.66;;;16.39;100.00
48968;BME280;46511;53.148;8.204;2023-05-23T02:01:59;101434.47;;;16.42;100.00
48968;BME280;46511;53.148;8.204;2023-05-23T02:04:27;101428.03;;;16.32;100.00
48968;BME280;46511;53.148;8.204;2023-05-23T02:06:58;101437.69;;;16.34;100.00
48968;BME280;46511;53.148;8.204;2023-05-23T02:09:25;101438.84;;;16.17;100.00
48968;BME280;46511;53.148;8.204;2023-05-23T02:11:56;101453.88;;;16.07;100.00
48968;BME280;46511;53.148;8.204;2023-05-23T02:14:27;101443.47;;;16.03;100.00
48968;BME280;46511;53.148;8.204;2023-05-23T02:16:59;101447.88;;;16.04;100.00
48968;BME280;46511;53.148;8.204;2023-05-23T02:19:30;101444.53;;;16.00;100.00
48968;BME280;46511;53.148;8.204;2023-05-23T02:22:02;101439.59;;;15.94;100.00
48968;BME280;46511;53.148;8.204;2023-05-23T02:24:28;101445.81;;;15.94;100.00
48968;BME280;46511;53.148;8.204;2023-05-23T02:26:55;101444.31;;;16.16;100.00
48968;BME280;46511;53.148;8.204;2023-05-23T02:29:26;101438.97;;;16.16;100.00
48968;BME280;46511;53.148;8.204;2023-05-23T02:31:57;101437.44;;;15.74;100.00
48968;BME280;46511;53.148;8.204;2023-05-23T02:34:28;101443.81;;;16.23;100.00
48968;BME280;46511;53.148;8.204;2023-05-23T02:37:00;101435.72;;;16.11;100.00
48968;BME280;46511;53.148;8.204;2023-05-23T02:39:33;101437.56;;;16.10;100.00
48968;BME280;46511;53.148;8.204;2023-05-23T02:42:06;101440.47;;;15.94;100.00
48968;BME280;46511;53.148;8.204;2023-05-23T02:44:37;101448.38;;;15.96;100.00
48968;BME280;46511;53.148;8.204;2023-05-23T02:47:09;101458.47;;;16.05;100.00
48968;BME280;46511;53.148;8.204;2023-05-23T02:49:40;101457.94;;;16.13;100.00
48968;BME280;46511;53.148;8.204;2023-05-23T02:52:07;101457.63;;;15.92;100.00
48968;BME280;46511;53.148;8.204;2023-05-23T02:54:38;101458.78;;;15.88;100.00
48968;BME280;46511;53.148;8.204;2023-05-23T02:57:10;101468.13;;;15.95;100.00
48968;BME280;46511;53.148;8.204;2023-05-23T02:59:36;101456.50;;;15.82;100.00
48968;BME280;46511;53.148;8.204;2023-05-23T03:02:07;101466.91;;;15.59;100.00
48968;BME280;46511;53.148;8.204;2023-05-23T03:04:38;101466.34;;;15.68;100.00
48968;BME280;46511;53.148;8.204;2023-05-23T03:07:10;101465.78;;;16.03;100.00
48968;BME280;46511;53.148;8.204;2023-05-23T03:09:42;101460.47;;;15.89;100.00
48968;BME280;46511;53.148;8.204;2023-05-23T03:12:09;101464.41;;;15.70;100.00
48968;BME280;46511;53.148;8.204;2023-05-23T03:14:40;101460.19;;;15.93;100.00
48968;BME280;46511;53.148;8.204;2023-05-23T03:17:12;101464.53;;;15.82;100.00
48968;BME280;46511;53.148;8.204;2023-05-23T03:19:43;101473.47;;;15.95;100.00
48968;BME280;46511;53.148;8.204;2023-05-23T03:22:09;101465.94;;;15.75;100.00
48968;BME280;46511;53.148;8.204;2023-05-23T03:24:41;101475.41;;;15.93;100.00
48968;BME280;46511;53.148;8.204;2023-05-23T03:27:12;101482.34;;;15.83;100.00
48968;BME280;46511;53.148;8.204;2023-05-23T03:29:44;101481.91;;;15.89;100.00
48968;BME280;46511;53.148;8.204;2023-05-23T03:32:16;101483.72;;;15.76;100.00
48968;BME280;46511;53.148;8.204;2023-05-23T03:34:42;101481.19;;;15.99;100.00
48968;BME280;46511;53.148;8.204;2023-05-23T03:37:13;101486.19;;;15.79;100.00
48968;BME280;46511;53.148;8.204;2023-05-23T03:39:45;101491.25;;;15.83;100.00
48968;BME280;46511;53.148;8.204;2023-05-23T03:42:16;101498.56;;;15.94;100.00
48968;BME280;46511;53.148;8.204;2023-05-23T03:44:48;101499.06;;;15.59;100.00
48968;BME280;46511;53.148;8.204;2023-05-23T03:47:19;101495.84;;;15.54;100.00
48968;BME280;46511;53.148;8.204;2023-05-23T03:49:50;101500.41;;;15.52;100.00
48968;BME280;46511;53.148;8.204;2023-05-23T03:52:17;101501.91;;;15.70;100.00
48968;BME280;46511;53.148;8.204;2023-05-23T03:54:48;101506.94;;;15.48;100.00
48968;BME280;46511;53.148;8.204;2023-05-23T03:57:14;101513.28;;;15.33;100.00
48968;BME280;46511;53.148;8.204;2023-05-23T03:59:45;101512.09;;;15.51;100.00
48968;BME280;46511;53.148;8.204;2023-05-23T04:02:17;101518.59;;;15.61;100.00
48968;BME280;46511;53.148;8.204;2023-05-23T04:04:48;101526.31;;;15.25;100.00
48968;BME280;46511;53.148;8.204;2023-05-23T04:07:19;101524.56;;;15.38;100.00
48968;BME280;46511;53.148;8.204;2023-05-23T04:09:51;101523.97;;;15.47;100.00
48968;BME280;46511;53.148;8.204;2023-05-23T04:12:22;101527.84;;;15.29;100.00
48968;BME280;46511;53.148;8.204;2023-05-23T04:14:53;101533.75;;;15.34;100.00
48968;BME280;46511;53.148;8.204;2023-05-23T04:17:25;101548.25;;;15.44;100.00
48968;BME280;46511;53.148;8.204;2023-05-23T04:20:00;101549.63;;;15.23;100.00
48968;BME280;46511;53.148;8.204;2023-05-23T04:22:26;101551.94;;;15.29;100.00
48968;BME280;46511;53.148;8.204;2023-05-23T04:24:58;101551.50;;;15.35;100.00
48968;BME280;46511;53.148;8.204;2023-05-23T04:27:29;101554.41;;;15.32;100.00
48968;BME280;46511;53.148;8.204;2023-05-23T04:30:01;101554.19;;;15.35;100.00
48968;BME280;46511;53.148;8.204;2023-05-23T04:32:32;101554.44;;;14.75;100.00
48968;BME280;46511;53.148;8.204;2023-05-23T04:35:04;101558.56;;;14.95;100.00
48968;BME280;46511;53.148;8.204;2023-05-23T04:37:35;101565.72;;;14.94;100.00
48968;BME280;46511;53.148;8.204;2023-05-23T04:40:07;101565.16;;;15.18;100.00
48968;BME280;46511;53.148;8.204;2023-05-23T04:42:39;101559.25;;;14.98;100.00
48968;BME280;46511;53.148;8.204;2023-05-23T04:45:12;101567.59;;;15.35;100.00
48968;BME280;46511;53.148;8.204;2023-05-23T04:47:38;101572.22;;;15.04;100.00
48968;BME280;46511;53.148;8.204;2023-05-23T04:50:10;101574.44;;;14.98;100.00
48968;BME280;46511;53.148;8.204;2023-05-23T04:52:41;101575.56;;;14.94;100.00
48968;BME280;46511;53.148;8.204;2023-05-23T04:55:12;101578.53;;;14.89;100.00
48968;BME280;46511;53.148;8.204;2023-05-23T04:57:44;101590.06;;;14.75;100.00
48968;BME280;46511;53.148;8.204;2023-05-23T05:00:15;101590.94;;;14.62;100.00
48968;BME280;46511;53.148;8.204;2023-05-23T05:02:47;101605.25;;;14.61;100.00
48968;BME280;46511;53.148;8.204;2023-05-23T05:05:18;101602.38;;;14.78;100.00
48968;BME280;46511;53.148;8.204;2023-05-23T05:07:50;101614.53;;;14.69;100.00
48968;BME280;46511;53.148;8.204;2023-05-23T05:10:21;101617.72;;;14.30;100.00
48968;BME280;46511;53.148;8.204;2023-05-23T05:12:48;101615.19;;;14.73;100.00
48968;BME280;46511;53.148;8.204;2023-05-23T05:15:21;101618.03;;;14.55;100.00
48968;BME280;46511;53.148;8.204;2023-05-23T05:17:53;101617.06;;;14.56;100.00
48968;BME280;46511;53.148;8.204;2023-05-23T05:20:24;101623.81;;;14.48;100.00
48968;BME280;46511;53.148;8.204;2023-05-23T05:22:56;101623.31;;;13.95;100.00
48968;BME280;46511;53.148;8.204;2023-05-23T05:25:28;101633.47;;;14.05;100.00
48968;BME280;46511;53.148;8.204;2023-05-23T05:28:00;101640.78;;;14.17;100.00
48968;BME280;46511;53.148;8.204;2023-05-23T05:30:36;101653.28;;;14.16;100.00
48968;BME280;46511;53.148;8.204;2023-05-23T05:33:07;101660.13;;;14.36;100.00
48968;BME280;46511;53.148;8.204;2023-05-23T05:35:40;101657.97;;;13.97;100.00
48968;BME280;46511;53.148;8.204;2023-05-23T05:38:11;101650.53;;;14.18;100.00
48968;BME280;46511;53.148;8.204;2023-05-23T05:40:37;101661.72;;;14.09;100.00
48968;BME280;46511;53.148;8.204;2023-05-23T05:43:04;101665.06;;;14.28;100.00
48968;BME280;46511;53.148;8.204;2023-05-23T05:45:36;101656.09;;;14.29;100.00
48968;BME280;46511;53.148;8.204;2023-05-23T05:48:07;101666.03;;;14.27;100.00
48968;BME280;46511;53.148;8.204;2023-05-23T05:50:39;101671.84;;;14.49;100.00
48968;BME280;46511;53.148;8.204;2023-05-23T05:53:05;101674.13;;;14.10;100.00
48968;BME280;46511;53.148;8.204;2023-05-23T05:55:38;101669.06;;;14.05;100.00
48968;BME280;46511;53.148;8.204;2023-05-23T05:58:09;101681.88;;;14.30;100.00
48968;BME280;46511;53.148;8.204;2023-05-23T06:00:40;101677.19;;;14.04;100.00
48968;BME280;46511;53.148;8.204;2023-05-23T06:03:12;101689.50;;;14.22;100.00
48968;BME280;46511;53.148;8.204;2023-05-23T06:05:43;101688.63;;;14.06;100.00
48968;BME280;46511;53.148;8.204;2023-05-23T06:08:15;101693.78;;;14.09;100.00
48968;BME280;46511;53.148;8.204;2023-05-23T06:10:46;101703.91;;;14.04;100.00
48968;BME280;46511;53.148;8.204;2023-05-23T06:13:17;101704.47;;;14.09;100.00
48968;BME280;46511;53.148;8.204;2023-05-23T06:15:49;101700.19;;;14.22;100.00
48968;BME280;46511;53.148;8.204;2023-05-23T06:18:20;101709.56;;;13.97;100.00
48968;BME280;46511;53.148;8.204;2023-05-23T06:20:51;101721.72;;;14.19;100.00
48968;BME280;46511;53.148;8.204;2023-05-23T06:23:23;101709.47;;;14.46;100.00
48968;BME280;46511;53.148;8.204;2023-05-23T06:25:49;101726.63;;;14.42;100.00
48968;BME280;46511;53.148;8.204;2023-05-23T06:28:21;101723.28;;;14.07;100.00
48968;BME280;46511;53.148;8.204;2023-05-23T06:30:52;101741.91;;;14.24;100.00
48968;BME280;46511;53.148;8.204;2023-05-23T06:33:23;101735.78;;;14.22;100.00
48968;BME280;46511;53.148;8.204;2023-05-23T06:35:55;101734.03;;;14.69;100.00
48968;BME280;46511;53.148;8.204;2023-05-23T06:38:28;101745.69;;;14.36;100.00
48968;BME280;46511;53.148;8.204;2023-05-23T06:41:01;101745.34;;;14.42;100.00
48968;BME280;46511;53.148;8.204;2023-05-23T06:43:33;101744.13;;;14.32;100.00
48968;BME280;46511;53.148;8.204;2023-05-23T06:46:04;101758.31;;;14.50;100.00
48968;BME280;46511;53.148;8.204;2023-05-23T06:48:36;101761.31;;;14.60;100.00
48968;BME280;46511;53.148;8.204;2023-05-23T06:51:03;101760.22;;;14.30;100.00
48968;BME280;46511;53.148;8.204;2023-05-23T06:53:34;101761.38;;;14.42;100.00
48968;BME280;46511;53.148;8.204;2023-05-23T06:56:05;101776.88;;;14.67;100.00
48968;BME280;46511;53.148;8.204;2023-05-23T06:58:37;101764.38;;;14.36;100.00
48968;BME280;46511;53.148;8.204;2023-05-23T07:01:08;101778.03;;;14.47;100.00
48968;BME280;46511;53.148;8.204;2023-05-23T07:03:40;101778.28;;;14.43;100.00
48968;BME280;46511;53.148;8.204;2023-05-23T07:06:14;101780.66;;;13.84;100.00
48968;BME280;46511;53.148;8.204;2023-05-23T07:08:46;101798.50;;;13.99;100.00
48968;BME280;46511;53.148;8.204;2023-05-23T07:11:17;101791.28;;;13.68;100.00
48968;BME280;46511;53.148;8.204;2023-05-23T07:13:48;101798.53;;;13.66;100.00
48968;BME280;46511;53.148;8.204;2023-05-23T07:16:20;101810.44;;;13.77;100.00
48968;BME280;46511;53.148;8.204;2023-05-23T07:18:51;101807.13;;;13.56;100.00
48968;BME280;46511;53.148;8.204;2023-05-23T07:21:22;101814.13;;;13.41;100.00
48968;BME280;46511;53.148;8.204;2023-05-23T07:23:54;101808.97;;;13.54;100.00
48968;BME280;46511;53.148;8.204;2023-05-23T07:26:25;101815.19;;;13.54;100.00
48968;BME280;46511;53.148;8.204;2023-05-23T07:28:57;101817.38;;;13.63;100.00
48968;BME280;46511;53.148;8.204;2023-05-23T07:31:29;101818.88;;;13.52;100.00
48968;BME280;46511;53.148;8.204;2023-05-23T07:33:56;101826.97;;;13.83;100.00
48968;BME280;46511;53.148;8.204;2023-05-23T07:36:27;101826.44;;;13.43;100.00
48968;BME280;46511;53.148;8.204;2023-05-23T07:38:59;101837.09;;;13.61;100.00
48968;BME280;46511;53.148;8.204;2023-05-23T07:41:31;101842.88;;;13.86;100.00
48968;BME280;46511;53.148;8.204;2023-05-23T07:44:02;101844.75;;;13.84;100.00
48968;BME280;46511;53.148;8.204;2023-05-23T07:46:28;101852.75;;;14.17;100.00
48968;BME280;46511;53.148;8.204;2023-05-23T07:49:00;101839.53;;;13.65;100.00
48968;BME280;46511;53.148;8.204;2023-05-23T07:51:31;101848.44;;;13.82;100.00
48968;BME280;46511;53.148;8.204;2023-05-23T07:54:02;101861.97;;;13.79;100.00
48968;BME280;46511;53.148;8.204;2023-05-23T07:56:29;101859.13;;;13.64;100.00
48968;BME280;46511;53.148;8.204;2023-05-23T07:59:01;101855.78;;;13.43;100.00
48968;BME280;46511;53.148;8.204;2023-05-23T08:01:32;101865.38;;;13.48;100.00
48968;BME280;46511;53.148;8.204;2023-05-23T08:04:03;101868.13;;;13.46;100.00
48968;BME280;46511;53.148;8.204;2023-05-23T08:06:34;101876.09;;;13.63;100.00
48968;BME280;46511;53.148;8.204;2023-05-23T08:09:07;101875.50;;;13.58;100.00
48968;BME280;46511;53.148;8.204;2023-05-23T08:11:39;101872.44;;;13.66;100.00
48968;BME280;46511;53.148;8.204;2023-05-23T08:14:11;101878.38;;;13.54;100.00
48968;BME280;46511;53.148;8.204;2023-05-23T08:16:42;101876.56;;;13.71;100.00
48968;BME280;46511;53.148;8.204;2023-05-23T08:19:13;101888.59;;;13.63;100.00
48968;BME280;46511;53.148;8.204;2023-05-23T08:21:45;101896.63;;;13.46;100.00
48968;BME280;46511;53.148;8.204;2023-05-23T08:24:17;101884.19;;;13.62;100.00
48968;BME280;46511;53.148;8.204;2023-05-23T08:26:51;101890.94;;;13.86;100.00
48968;BME280;46511;53.148;8.204;2023-05-23T08:29:23;101887.97;;;13.75;100.00
48968;BME280;46511;53.148;8.204;2023-05-23T08:31:54;101896.44;;;13.83;100.00
48968;BME280;46511;53.148;8.204;2023-05-23T08:34:25;101899.91;;;13.85;100.00
48968;BME280;46511;53.148;8.204;2023-05-23T08:36:57;101904.22;;;13.88;100.00
48968;BME280;46511;53.148;8.204;2023-05-23T08:39:28;101899.53;;;13.76;100.00
48968;BME280;46511;53.148;8.204;2023-05-23T08:41:59;101917.50;;;13.55;100.00
48968;BME280;46511;53.148;8.204;2023-05-23T08:44:31;101906.94;;;14.04;100.00
48968;BME280;46511;53.148;8.204;2023-05-23T08:47:02;101911.50;;;14.35;100.00
48968;BME280;46511;53.148;8.204;2023-05-23T08:49:36;101906.13;;;14.83;100.00
48968;BME280;46511;53.148;8.204;2023-05-23T08:52:09;101907.69;;;14.72;100.00
48968;BME280;46511;53.148;8.204;2023-05-23T08:54:42;101922.09;;;14.85;100.00
48968;BME280;46511;53.148;8.204;2023-05-23T08:57:14;101915.28;;;14.64;100.00
48968;BME280;46511;53.148;8.204;2023-05-23T08:59:46;101917.72;;;15.60;100.00
48968;BME280;46511;53.148;8.204;2023-05-23T09:02:14;101911.44;;;16.05;100.00
48968;BME280;46511;53.148;8.204;2023-05-23T09:04:46;101913.22;;;15.76;100.00
48968;BME280;46511;53.148;8.204;2023-05-23T09:07:17;101919.09;;;16.11;100.00
48968;BME280;46511;53.148;8.204;2023-05-23T09:09:44;101919.38;;;17.05;100.00
48968;BME280;46511;53.148;8.204;2023-05-23T09:12:17;101907.03;;;19.54;100.00
48968;BME280;46511;53.148;8.204;2023-05-23T09:14:52;101907.00;;;19.19;100.00
48968;BME280;46511;53.148;8.204;2023-05-23T09:17:18;101910.16;;;19.12;100.00
48968;BME280;46511;53.148;8.204;2023-05-23T09:19:50;101908.38;;;19.00;96.42
48968;BME280;46511;53.148;8.204;2023-05-23T09:22:22;101918.66;;;18.82;97.60
48968;BME280;46511;53.148;8.204;2023-05-23T09:24:56;101930.03;;;17.98;100.00
48968;BME280;46511;53.148;8.204;2023-05-23T09:27:22;101923.00;;;18.72;96.81
48968;BME280;46511;53.148;8.204;2023-05-23T09:29:54;101928.84;;;17.37;100.00
48968;BME280;46511;53.148;8.204;2023-05-23T09:32:26;101938.53;;;17.53;100.00
48968;BME280;46511;53.148;8.204;2023-05-23T09:37:31;101942.84;;;16.74;100.00
48968;BME280;46511;53.148;8.204;2023-05-23T09:40:08;101940.00;;;17.71;100.00
48968;BME280;46511;53.148;8.204;2023-05-23T09:42:44;101942.91;;;17.14;100.00
48968;BME280;46511;53.148;8.204;2023-05-23T09:45:13;101953.16;;;17.22;100.00
48968;BME280;46511;53.148;8.204;2023-05-23T09:47:50;101953.75;;;16.28;100.00
48968;BME280;46511;53.148;8.204;2023-05-23T09:50:17;101958.56;;;16.52;100.00
48968;BME280;46511;53.148;8.204;2023-05-23T09:52:48;101959.03;;;16.59;100.00
48968;BME280;46511;53.148;8.204;2023-05-23T09:55:21;101960.59;;;17.04;100.00
48968;BME280;46511;53.148;8.204;2023-05-23T09:57:53;101951.09;;;16.71;100.00
48968;BME280;46511;53.148;8.204;2023-05-23T10:00:26;101957.28;;;17.67;100.00
48968;BME280;46511;53.148;8.204;2023-05-23T10:03:11;101956.50;;;18.43;100.00
48968;BME280;46511;53.148;8.204;2023-05-23T10:05:45;101952.00;;;18.31;95.68
48968;BME280;46511;53.148;8.204;2023-05-23T10:08:24;101963.84;;;18.41;97.67
48968;BME280;46511;53.148;8.204;2023-05-23T10:13:27;101967.41;;;19.27;94.45
48968;BME280;46511;53.148;8.204;2023-05-23T10:16:05;101965.16;;;20.04;86.18
48968;BME280;46511;53.148;8.204;2023-05-23T10:18:39;101969.13;;;21.76;68.54
48968;BME280;46511;53.148;8.204;2023-05-23T10:21:18;101957.09;;;21.80;63.76
48968;BME280;46511;53.148;8.204;2023-05-23T10:23:54;101965.25;;;20.49;74.12
48968;BME280;46511;53.148;8.204;2023-05-23T10:26:27;101965.06;;;20.17;74.06
48968;BME280;46511;53.148;8.204;2023-05-23T10:28:59;101970.84;;;19.05;84.70
48968;BME280;46511;53.148;8.204;2023-05-23T10:31:31;101969.22;;;18.03;93.18
48968;BME280;46511;53.148;8.204;2023-05-23T10:34:07;101972.22;;;18.36;92.85
48968;BME280;46511;53.148;8.204;2023-05-23T10:36:52;101977.88;;;19.91;82.24
48968;BME280;46511;53.148;8.204;2023-05-23T10:39:32;101984.16;;;20.49;73.58
48968;BME280;46511;53.148;8.204;2023-05-23T10:42:10;101973.38;;;19.20;80.44
48968;BME280;46511;53.148;8.204;2023-05-23T10:44:45;101968.34;;;18.02;88.37
48968;BME280;46511;53.148;8.204;2023-05-23T10:47:11;101980.09;;;17.34;96.18
48968;BME280;46511;53.148;8.204;2023-05-23T10:49:51;101985.97;;;17.93;96.85
48968;BME280;46511;53.148;8.204;2023-05-23T10:52:24;101991.66;;;19.51;86.27
48968;BME280;46511;53.148;8.204;2023-05-23T10:54:59;101989.88;;;22.08;66.05
48968;BME280;46511;53.148;8.204;2023-05-23T10:57:30;101978.59;;;24.12;55.07
48968;BME280;46511;53.148;8.204;2023-05-23T11:00:02;101975.31;;;25.02;49.44
48968;BME280;46511;53.148;8.204;2023-05-23T11:02:34;101978.50;;;22.56;53.85
48968;BME280;46511;53.148;8.204;2023-05-23T11:16:39;101993.75;;;22.87;46.17
48968;BME280;46511;53.148;8.204;2023-05-23T11:21:51;101997.75;;;25.04;43.32
48968;BME280;46511;53.148;8.204;2023-05-23T11:30:09;101997.94;;;20.22;55.13
48968;BME280;46511;53.148;8.204;2023-05-23T11:32:51;102004.94;;;18.81;72.09
48968;BME280;46511;53.148;8.204;2023-05-23T11:35:24;102020.44;;;20.56;62.94
48968;BME280;46511;53.148;8.204;2023-05-23T11:37:57;102016.28;;;20.74;61.91
48968;BME280;46511;53.148;8.204;2023-05-23T11:40:30;102016.50;;;20.38;64.27
48968;BME280;46511;53.148;8.204;2023-05-23T11:43:02;102013.78;;;19.56;66.21
48968;BME280;46511;53.148;8.204;2023-05-23T11:45:38;102021.81;;;20.04;70.44
48968;BME280;46511;53.148;8.204;2023-05-23T11:48:11;102018.34;;;19.91;68.19
48968;BME280;46511;53.148;8.204;2023-05-23T11:50:48;102030.03;;;20.71;64.98
48968;BME280;46511;53.148;8.204;2023-05-23T11:53:15;102034.13;;;19.84;67.84
48968;BME280;46511;53.148;8.204;2023-05-23T11:55:54;102033.00;;;19.39;72.95
48968;BME280;46511;53.148;8.204;2023-05-23T11:58:28;102025.16;;;20.76;67.03
48968;BME280;46511;53.148;8.204;2023-05-23T12:01:02;102021.81;;;20.04;68.73
48968;BME280;46511;53.148;8.204;2023-05-23T12:03:48;102018.00;;;20.07;67.65
48968;BME280;46511;53.148;8.204;2023-05-23T12:06:17;102025.09;;;21.10;65.75
48968;BME280;46511;53.148;8.204;2023-05-23T12:08:52;102025.25;;;21.63;57.08
48968;BME280;46511;53.148;8.204;2023-05-23T12:11:23;102026.75;;;23.61;52.25
48968;BME280;46511;53.148;8.204;2023-05-23T12:13:51;102028.66;;;21.44;54.66
48968;BME280;46511;53.148;8.204;2023-05-23T12:16:23;102040.09;;;21.14;58.49
48968;BME280;46511;53.148;8.204;2023-05-23T12:18:54;102034.69;;;23.34;51.97
48968;BME280;46511;53.148;8.204;2023-05-23T12:21:31;102022.72;;;22.66;50.94
48968;BME280;46511;53.148;8.204;2023-05-23T12:24:17;102032.84;;;21.69;49.58
48968;BME280;46511;53.148;8.204;2023-05-23T12:26:49;102043.78;;;22.62;48.46
48968;BME280;46511;53.148;8.204;2023-05-23T12:29:27;102043.25;;;23.39;44.51
48968;BME280;46511;53.148;8.204;2023-05-23T12:31:56;102023.25;;;23.40;45.26
48968;BME280;46511;53.148;8.204;2023-05-23T12:34:29;102038.19;;;23.75;45.41
48968;BME280;46511;53.148;8.204;2023-05-23T12:37:00;102045.94;;;22.59;48.94
48968;BME280;46511;53.148;8.204;2023-05-23T12:39:34;102045.00;;;20.53;53.10
48968;BME280;46511;53.148;8.204;2023-05-23T12:42:06;102041.84;;;19.89;56.80
48968;BME280;46511;53.148;8.204;2023-05-23T12:44:42;102046.84;;;20.17;56.62
48968;BME280;46511;53.148;8.204;2023-05-23T12:47:14;102048.22;;;20.92;52.88
48968;BME280;46511;53.148;8.204;2023-05-23T12:49:45;102047.47;;;21.01;54.94
48968;BME280;46511;53.148;8.204;2023-05-23T12:52:16;102045.41;;;20.36;55.28
48968;BME280;46511;53.148;8.204;2023-05-23T12:54:48;102049.09;;;20.23;54.33
48968;BME280;46511;53.148;8.204;2023-05-23T12:57:19;102063.44;;;20.59;55.74
48968;BME280;46511;53.148;8.204;2023-05-23T12:59:50;102050.72;;;19.67;57.42
48968;BME280;46511;53.148;8.204;2023-05-23T13:02:22;102059.16;;;19.50;60.60
48968;BME280;46511;53.148;8.204;2023-05-23T13:04:56;102059.28;;;20.89;59.68
48968;BME280;46511;53.148;8.204;2023-05-23T13:07:28;102049.94;;;20.70;57.23
48968;BME280;46511;53.148;8.204;2023-05-23T13:10:00;102057.91;;;21.28;56.54
48968;BME280;46511;53.148;8.204;2023-05-23T13:12:32;102049.78;;;21.82;50.70
48968;BME280;46511;53.148;8.204;2023-05-23T13:14:59;102057.06;;;21.27;50.83
48968;BME280;46511;53.148;8.204;2023-05-23T13:17:33;102057.28;;;20.91;53.30
48968;BME280;46511;53.148;8.204;2023-05-23T13:20:05;102064.41;;;20.92;52.37
48968;BME280;46511;53.148;8.204;2023-05-23T13:22:32;102067.38;;;20.77;52.14
48968;BME280;46511;53.148;8.204;2023-05-23T13:24:58;102069.56;;;20.26;53.65
48968;BME280;46511;53.148;8.204;2023-05-23T13:27:30;102071.66;;;20.58;55.02
48968;BME280;46511;53.148;8.204;2023-05-23T13:30:01;102066.72;;;20.16;53.46
48968;BME280;46511;53.148;8.204;2023-05-23T13:32:27;102069.94;;;21.01;53.86
48968;BME280;46511;53.148;8.204;2023-05-23T13:34:59;102070.41;;;22.78;47.85